Accueil
METAR-TAF:

METAR-TAF

Aéroports :

Aérodrome de Sainte-Marie

Île Sainte-Marie, Madagascar

latitude: 17-05S, longitude: 049-49E, altitude: 2 m

Observation

Le bulletin a été fait il y a 11 heures et 22 minutes, à 15:00 UTC
Vent 4 kt de sud/sud-est
Température 25°C
Humidité 74%
Pression 1022 hPa
Visibilité 10 km ou plus
Quelques nuages à une hauteur de 1700 ft

METAR: FMMS 231500Z 15004KT 9999 FEW017 25/20 Q1022

Heure: 05:22 (02:22 UTC)


TAF: absent

Observations et prévisions météorologiques de plus de 4000 aéroports (messages METAR et TAF).

Les stations disponibles sont représentées par des disques jaunes et rouges sur la carte.

Passer la souris dessus pour voir le nom de la station.

Cliquer dessus pour voir les observations et prévisions météorologiques.

Pour changer de carte: cliquez sur les boutons verts avec une croix noire pour zoomer, sur le bouton vert avec un tiret pour effectuer un zoom arrière, ou sur les flèches vertes pour les cartes adjacentes.


METAR-TAF: